createdAt,value
2023-01-19T00:01:35.038Z,19.40
2023-01-19T00:04:04.943Z,17.80
2023-01-19T00:06:34.963Z,18.52
2023-01-19T00:09:07.469Z,18.73
2023-01-19T00:11:37.389Z,16.95
2023-01-19T00:14:07.936Z,17.42
2023-01-19T00:16:37.807Z,17.63
2023-01-19T00:19:07.821Z,18.02
2023-01-19T00:21:37.669Z,17.85
2023-01-19T00:24:10.492Z,17.85
2023-01-19T00:26:40.542Z,18.02
2023-01-19T00:29:10.546Z,17.52
2023-01-19T00:31:40.750Z,17.83
2023-01-19T00:34:11.535Z,17.75
2023-01-19T00:36:41.445Z,16.80
2023-01-19T00:39:13.909Z,16.50
2023-01-19T00:41:56.291Z,16.85
2023-01-19T00:44:26.161Z,17.48
2023-01-19T00:46:56.023Z,16.95
2023-01-19T00:49:25.897Z,16.52
2023-01-19T00:51:55.732Z,17.95
2023-01-19T00:54:28.163Z,17.55
2023-01-19T00:56:58.015Z,17.33
2023-01-19T00:59:28.567Z,18.13
2023-01-19T01:01:58.638Z,16.80
2023-01-19T01:04:28.701Z,18.45
2023-01-19T01:06:58.604Z,17.67
2023-01-19T01:09:31.220Z,17.13
2023-01-19T01:12:01.184Z,16.67
2023-01-19T01:14:31.422Z,17.48
2023-01-19T01:17:01.285Z,16.83
2023-01-19T01:19:31.220Z,17.40
2023-01-19T01:22:01.653Z,18.05
2023-01-19T01:24:34.113Z,17.33
2023-01-19T01:27:04.018Z,17.45
2023-01-19T01:29:35.419Z,18.23
2023-01-19T01:32:05.293Z,16.70
2023-01-19T01:34:35.404Z,17.48
2023-01-19T01:37:08.195Z,17.15
2023-01-19T01:39:40.952Z,16.17
2023-01-19T01:42:20.246Z,17.23
2023-01-19T01:44:53.461Z,15.32
2023-01-19T01:47:31.130Z,16.45
2023-01-19T01:50:09.381Z,17.27
2023-01-19T01:53:06.372Z,16.55
2023-01-19T01:55:42.782Z,15.63
2023-01-19T01:58:14.294Z,16.05
2023-01-19T02:01:11.868Z,15.52
2023-01-19T02:03:41.859Z,14.30
2023-01-19T02:06:12.890Z,15.02
2023-01-19T02:09:00.425Z,14.80
2023-01-19T02:11:46.253Z,15.23
2023-01-19T02:14:16.096Z,14.48
2023-01-19T02:16:46.157Z,15.32
2023-01-19T02:19:20.540Z,14.52
2023-01-19T02:21:58.072Z,14.77
2023-01-19T02:24:30.655Z,15.25
2023-01-19T02:27:01.797Z,14.30
2023-01-19T02:29:32.015Z,14.93
2023-01-19T02:32:03.220Z,13.95
2023-01-19T02:34:33.534Z,14.73
2023-01-19T02:37:07.631Z,13.68
2023-01-19T02:39:45.368Z,14.88
2023-01-19T02:42:20.085Z,14.52
2023-01-19T02:47:21.354Z,15.02
2023-01-19T02:49:58.793Z,14.95
2023-01-19T02:52:29.917Z,15.63
2023-01-19T02:55:11.329Z,15.20
2023-01-19T02:57:57.024Z,15.35
2023-01-19T03:00:39.545Z,15.95
2023-01-19T03:03:27.121Z,15.35
2023-01-19T03:06:06.067Z,14.70
2023-01-19T03:08:48.633Z,15.07
2023-01-19T03:11:21.595Z,15.40
2023-01-19T03:13:55.726Z,15.80
2023-01-19T03:16:32.081Z,17.05
2023-01-19T03:19:07.888Z,14.63
2023-01-19T03:21:40.254Z,15.75
2023-01-19T03:24:14.288Z,16.15
2023-01-19T03:26:52.245Z,16.05
2023-01-19T03:29:25.386Z,16.52
2023-01-19T03:31:57.008Z,17.38
2023-01-19T03:34:28.540Z,16.23
2023-01-19T03:37:04.612Z,16.33
2023-01-19T03:39:35.032Z,16.15
2023-01-19T03:42:11.412Z,18.45
2023-01-19T03:44:44.358Z,16.42
2023-01-19T03:47:16.572Z,16.42
2023-01-19T03:49:48.060Z,15.63
2023-01-19T03:52:18.035Z,16.58
2023-01-19T03:54:48.230Z,15.48
2023-01-19T03:57:20.707Z,16.45
2023-01-19T03:59:50.580Z,14.75
2023-01-19T04:02:20.482Z,14.90
2023-01-19T04:04:50.465Z,15.27
2023-01-19T04:07:20.327Z,14.18
2023-01-19T04:09:50.196Z,14.20
2023-01-19T04:12:22.643Z,14.25
2023-01-19T04:14:52.477Z,14.95
2023-01-19T04:17:22.463Z,14.73
2023-01-19T04:19:53.279Z,13.90
2023-01-19T04:22:23.298Z,15.20
2023-01-19T04:24:53.134Z,16.00
2023-01-19T04:27:26.137Z,14.32
2023-01-19T04:29:56.011Z,14.55
2023-01-19T04:32:26.038Z,14.30
2023-01-19T04:34:55.857Z,14.77
2023-01-19T04:37:25.934Z,15.95
2023-01-19T04:39:55.808Z,15.02
2023-01-19T04:42:28.294Z,14.02
2023-01-19T04:44:58.148Z,14.32
2023-01-19T04:47:28.058Z,13.07
2023-01-19T04:49:58.194Z,15.15
2023-01-19T04:52:35.002Z,14.85
2023-01-19T04:55:05.053Z,14.43
2023-01-19T04:57:38.016Z,14.23
2023-01-19T05:00:10.126Z,14.98
2023-01-19T05:02:42.230Z,14.55
2023-01-19T05:05:12.794Z,14.30
2023-01-19T05:07:43.115Z,14.70
2023-01-19T05:10:14.798Z,15.07
2023-01-19T05:12:47.295Z,15.10
2023-01-19T05:15:17.214Z,15.13
2023-01-19T05:17:47.077Z,14.23
2023-01-19T05:20:17.706Z,16.75
2023-01-19T05:22:52.899Z,15.02
2023-01-19T05:25:23.190Z,14.82
2023-01-19T05:27:55.625Z,15.77
2023-01-19T05:30:25.551Z,15.18
2023-01-19T05:32:55.446Z,15.45
2023-01-19T05:35:35.289Z,15.90
2023-01-19T05:38:05.940Z,14.05
2023-01-19T05:40:35.859Z,15.65
2023-01-19T05:43:08.343Z,15.10
2023-01-19T05:45:38.909Z,15.55
2023-01-19T05:48:10.296Z,16.90
2023-01-19T05:50:40.194Z,16.08
2023-01-19T05:53:10.052Z,16.25
2023-01-19T05:55:40.140Z,16.02
2023-01-19T05:58:12.631Z,16.38
2023-01-19T06:00:42.520Z,15.73
2023-01-19T06:03:12.623Z,16.05
2023-01-19T06:05:42.497Z,16.08
2023-01-19T06:08:13.340Z,14.85
2023-01-19T06:10:43.495Z,15.57
2023-01-19T06:13:15.947Z,16.17
2023-01-19T06:15:46.329Z,16.00
2023-01-19T06:18:17.500Z,15.85
2023-01-19T06:20:47.343Z,17.20
2023-01-19T06:23:17.181Z,16.38
2023-01-19T06:25:47.385Z,15.68
2023-01-19T06:28:19.878Z,16.23
2023-01-19T06:30:52.426Z,16.50
2023-01-19T06:33:22.961Z,17.63
2023-01-19T06:35:54.064Z,14.85
2023-01-19T06:38:23.948Z,15.70
2023-01-19T06:40:58.714Z,16.10
2023-01-19T06:43:32.323Z,15.60
2023-01-19T06:46:04.063Z,16.67
2023-01-19T06:48:34.084Z,16.58
2023-01-19T06:51:05.959Z,16.85
2023-01-19T06:53:36.115Z,16.42
2023-01-19T06:56:07.243Z,17.38
2023-01-19T06:58:42.111Z,21.48
2023-01-19T07:01:12.766Z,20.42
2023-01-19T07:03:42.817Z,17.17
2023-01-19T07:06:13.104Z,17.40
2023-01-19T07:08:42.963Z,18.70
2023-01-19T07:11:26.013Z,16.92
2023-01-19T07:14:05.544Z,17.83
2023-01-19T07:16:35.850Z,18.23
2023-01-19T07:19:05.912Z,16.98
2023-01-19T07:21:35.815Z,16.05
2023-01-19T07:24:05.827Z,17.92
2023-01-19T07:26:35.694Z,15.80
2023-01-19T07:29:08.166Z,16.42
2023-01-19T07:31:38.259Z,16.45
2023-01-19T07:34:08.181Z,17.27
2023-01-19T07:36:38.585Z,16.45
2023-01-19T07:39:08.443Z,17.38
2023-01-19T07:41:38.344Z,17.13
2023-01-19T07:44:11.389Z,18.02
2023-01-19T07:46:41.272Z,18.38
2023-01-19T07:49:11.685Z,17.48
2023-01-19T07:51:41.577Z,17.95
2023-01-19T07:54:11.659Z,16.65
2023-01-19T07:56:41.633Z,16.95
2023-01-19T07:59:15.365Z,16.92
2023-01-19T08:01:45.646Z,17.60
2023-01-19T08:04:15.875Z,17.25
2023-01-19T08:06:49.453Z,17.80
2023-01-19T08:09:19.537Z,18.20
2023-01-19T08:11:50.081Z,18.65
2023-01-19T08:14:22.757Z,17.80
2023-01-19T08:16:52.606Z,16.98
2023-01-19T08:19:22.789Z,17.00
2023-01-19T08:21:52.646Z,16.60
2023-01-19T08:24:28.515Z,17.02
2023-01-19T08:27:02.039Z,16.00
2023-01-19T08:29:34.570Z,17.10
2023-01-19T08:32:04.870Z,15.38
2023-01-19T08:34:35.134Z,15.50
2023-01-19T08:37:05.017Z,16.63
2023-01-19T08:39:34.936Z,16.50
2023-01-19T08:42:05.644Z,15.95
2023-01-19T08:44:46.685Z,15.90
2023-01-19T08:47:23.080Z,15.65
2023-01-19T08:49:52.971Z,15.75
2023-01-19T08:52:24.770Z,16.65
2023-01-19T08:54:54.640Z,16.10
2023-01-19T08:57:24.499Z,17.30
2023-01-19T08:59:57.110Z,17.02
2023-01-19T09:02:27.205Z,17.45
2023-01-19T09:04:57.258Z,15.70
2023-01-19T09:07:30.534Z,16.45
2023-01-19T09:10:02.315Z,15.90
2023-01-19T09:12:32.235Z,15.63
2023-01-19T09:15:05.115Z,15.05
2023-01-19T09:17:35.205Z,16.00
2023-01-19T09:20:06.397Z,15.85
2023-01-19T09:22:36.304Z,13.63
2023-01-19T09:25:06.569Z,14.90
2023-01-19T09:27:36.419Z,13.60
2023-01-19T09:30:11.573Z,15.10
2023-01-19T09:32:41.417Z,13.05
2023-01-19T09:35:12.454Z,12.93
2023-01-19T09:37:42.302Z,14.43
2023-01-19T09:40:14.985Z,14.38
2023-01-19T09:42:47.295Z,14.50
2023-01-19T09:45:25.959Z,15.10
2023-01-19T09:47:57.078Z,12.60
2023-01-19T09:50:31.723Z,14.90
2023-01-19T09:55:39.490Z,16.25
2023-01-19T09:58:16.350Z,13.52
2023-01-19T10:00:54.859Z,13.02
2023-01-19T10:03:26.923Z,12.85
2023-01-19T10:06:02.802Z,13.30
2023-01-19T10:08:40.681Z,11.35
2023-01-19T10:11:29.110Z,11.75
2023-01-19T10:14:02.385Z,13.45
2023-01-19T10:16:44.646Z,12.02
2023-01-19T10:19:28.640Z,12.93
2023-01-19T10:22:00.889Z,10.20
2023-01-19T10:24:38.448Z,12.23
2023-01-19T10:27:18.453Z,12.18
2023-01-19T10:29:49.614Z,11.18
2023-01-19T10:32:26.175Z,11.63
2023-01-19T10:34:58.539Z,11.80
2023-01-19T10:37:35.168Z,10.80
2023-01-19T10:40:20.192Z,11.27
2023-01-19T10:45:21.167Z,11.70
2023-01-19T10:47:55.988Z,10.30
2023-01-19T10:50:29.959Z,11.18
2023-01-19T10:53:03.880Z,10.90
2023-01-19T10:55:38.191Z,11.90
2023-01-19T10:58:10.071Z,10.95
2023-01-19T11:00:45.678Z,13.25
2023-01-19T11:03:27.681Z,12.15
2023-01-19T11:06:07.249Z,11.77
2023-01-19T11:08:37.149Z,11.50
2023-01-19T11:11:09.245Z,11.43
2023-01-19T11:13:39.843Z,11.57
2023-01-19T11:16:18.823Z,12.07
2023-01-19T11:18:56.041Z,11.77
2023-01-19T11:21:30.066Z,12.38
2023-01-19T11:24:02.926Z,12.38
2023-01-19T11:26:37.073Z,12.57
2023-01-19T11:29:07.843Z,12.10
2023-01-19T11:31:39.224Z,11.57
2023-01-19T11:34:28.259Z,11.60
2023-01-19T11:37:03.562Z,12.20
2023-01-19T11:39:48.672Z,11.65
2023-01-19T11:45:01.397Z,13.43
2023-01-19T11:47:40.526Z,11.80
2023-01-19T11:50:23.074Z,11.65
2023-01-19T11:52:59.320Z,11.32
2023-01-19T11:55:38.981Z,11.82
2023-01-19T11:58:09.411Z,10.30
2023-01-19T12:00:46.472Z,12.00
2023-01-19T12:03:24.415Z,11.98
2023-01-19T12:06:02.151Z,12.85
2023-01-19T12:08:38.196Z,11.30
2023-01-19T12:11:11.789Z,11.73
2023-01-19T12:13:44.160Z,11.60
2023-01-19T12:16:17.520Z,11.40
2023-01-19T12:18:52.758Z,11.43
2023-01-19T12:21:25.435Z,11.13
2023-01-19T12:24:06.898Z,11.30
2023-01-19T12:26:40.333Z,11.52
2023-01-19T12:29:16.016Z,11.68
2023-01-19T12:31:46.315Z,11.98
2023-01-19T12:34:43.827Z,11.52
2023-01-19T12:37:37.587Z,12.38
2023-01-19T12:40:27.863Z,12.40
2023-01-19T12:43:04.495Z,12.40
2023-01-19T12:45:36.584Z,12.23
2023-01-19T12:48:11.670Z,13.07
2023-01-19T12:50:41.984Z,13.50
2023-01-19T12:53:26.580Z,13.60
2023-01-19T12:56:06.093Z,13.40
2023-01-19T12:58:36.473Z,13.85
2023-01-19T13:01:19.209Z,13.30
2023-01-19T13:04:03.700Z,12.93
2023-01-19T13:07:17.938Z,14.45
2023-01-19T13:09:50.389Z,13.68
2023-01-19T13:12:25.598Z,14.02
2023-01-19T13:15:36.204Z,13.70
2023-01-19T13:18:07.308Z,13.60
2023-01-19T13:20:48.645Z,13.82
2023-01-19T13:23:23.581Z,14.13
2023-01-19T13:26:07.143Z,14.02
2023-01-19T13:28:44.571Z,14.00
2023-01-19T13:31:16.221Z,13.18
2023-01-19T13:33:51.676Z,13.48
2023-01-19T13:36:32.679Z,13.65
2023-01-19T13:39:06.695Z,14.25
2023-01-19T13:41:42.649Z,13.93
2023-01-19T13:44:23.778Z,12.50
2023-01-19T13:46:54.816Z,12.38
2023-01-19T13:49:31.436Z,13.82
2023-01-19T13:52:09.798Z,13.02
2023-01-19T13:54:39.813Z,12.38
2023-01-19T13:57:26.880Z,12.68
2023-01-19T14:00:12.026Z,12.63
2023-01-19T14:02:43.038Z,13.63
2023-01-19T14:05:17.466Z,12.68
2023-01-19T14:07:47.754Z,13.60
2023-01-19T14:10:19.696Z,11.98
2023-01-19T14:13:02.208Z,13.00
2023-01-19T14:15:33.216Z,12.68
2023-01-19T14:18:28.254Z,13.95
2023-01-19T14:21:02.258Z,12.43
2023-01-19T14:23:45.905Z,13.45
2023-01-19T14:26:46.872Z,13.20
2023-01-19T14:29:32.947Z,13.52
2023-01-19T14:32:17.180Z,13.27
2023-01-19T14:35:25.063Z,12.85
2023-01-19T14:37:55.793Z,14.25
2023-01-19T14:40:27.068Z,14.02
2023-01-19T14:43:00.199Z,13.52
2023-01-19T14:45:40.546Z,12.63
2023-01-19T14:48:20.557Z,12.73
2023-01-19T14:51:02.735Z,12.68
2023-01-19T14:53:39.526Z,13.13
2023-01-19T14:56:10.403Z,14.20
2023-01-19T14:58:40.417Z,12.70
2023-01-19T15:01:12.940Z,13.70
2023-01-19T15:03:45.124Z,12.80
2023-01-19T15:06:18.456Z,13.32
2023-01-19T15:08:50.250Z,12.80
2023-01-19T15:11:25.661Z,12.80
2023-01-19T15:13:55.863Z,13.40
2023-01-19T15:16:29.862Z,13.82
2023-01-19T15:18:59.781Z,12.80
2023-01-19T15:21:29.675Z,13.40
2023-01-19T15:24:00.468Z,14.48
2023-01-19T15:26:30.677Z,14.05
2023-01-19T15:29:00.535Z,13.65
2023-01-19T15:31:33.218Z,13.98
2023-01-19T15:34:03.161Z,14.15
2023-01-19T15:36:33.034Z,14.65
2023-01-19T15:39:02.927Z,13.85
2023-01-19T15:41:32.867Z,14.10
2023-01-19T15:44:05.045Z,14.07
2023-01-19T15:46:37.648Z,14.95
2023-01-19T15:49:08.345Z,15.07
2023-01-19T15:51:38.269Z,15.15
2023-01-19T15:54:08.301Z,15.18
2023-01-19T15:56:38.159Z,14.77
2023-01-19T15:59:08.015Z,14.60
2023-01-19T16:01:40.554Z,15.95
2023-01-19T16:04:12.260Z,15.82
2023-01-19T16:06:42.102Z,15.15
2023-01-19T16:09:16.872Z,19.23
2023-01-19T16:11:47.090Z,16.20
2023-01-19T16:14:17.620Z,15.20
2023-01-19T16:16:50.270Z,15.98
2023-01-19T16:19:20.204Z,15.45
2023-01-19T16:21:50.058Z,15.32
2023-01-19T16:24:20.439Z,16.13
2023-01-19T16:26:50.300Z,16.05
2023-01-19T16:29:20.295Z,17.35
2023-01-19T16:31:52.801Z,16.45
2023-01-19T16:34:24.193Z,18.98
2023-01-19T16:36:54.425Z,16.90
2023-01-19T16:39:24.533Z,16.90
2023-01-19T16:41:54.417Z,16.45
2023-01-19T16:44:24.332Z,16.52
2023-01-19T16:46:56.993Z,17.55
2023-01-19T16:49:29.134Z,16.20
2023-01-19T16:51:59.655Z,20.05
2023-01-19T16:54:32.045Z,20.70
2023-01-19T16:57:02.248Z,18.85
2023-01-19T16:59:32.222Z,20.70
2023-01-19T17:02:05.169Z,18.42
2023-01-19T17:04:35.332Z,20.55
2023-01-19T17:07:05.210Z,23.73
2023-01-19T17:09:35.080Z,19.92
2023-01-19T17:12:07.461Z,20.70
2023-01-19T17:14:38.312Z,36.08
2023-01-19T17:17:11.340Z,22.90
2023-01-19T17:19:41.327Z,20.48
2023-01-19T17:22:12.176Z,20.17
2023-01-19T17:24:43.692Z,32.65
2023-01-19T17:27:13.577Z,23.85
2023-01-19T17:29:43.520Z,31.35
2023-01-19T17:32:15.966Z,27.23
2023-01-19T17:34:46.735Z,26.65
2023-01-19T17:37:16.611Z,25.67
2023-01-19T17:39:46.486Z,29.55
2023-01-19T17:42:16.408Z,23.98
2023-01-19T17:44:46.354Z,23.98
2023-01-19T17:47:24.687Z,41.10
2023-01-19T17:49:55.028Z,37.03
2023-01-19T17:52:24.886Z,31.05
2023-01-19T17:54:55.024Z,24.88
2023-01-19T17:57:25.221Z,22.90
2023-01-19T17:59:55.120Z,27.45
2023-01-19T18:02:27.639Z,29.35
2023-01-19T18:04:59.384Z,38.85
2023-01-19T18:07:29.466Z,41.63
2023-01-19T18:10:01.061Z,41.92
2023-01-19T18:12:31.430Z,47.50
2023-01-19T18:15:01.355Z,38.60
2023-01-19T18:17:34.413Z,37.38
2023-01-19T18:20:04.681Z,28.15
2023-01-19T18:22:34.974Z,25.77
2023-01-19T18:25:04.849Z,23.75
2023-01-19T18:27:34.799Z,21.70
2023-01-19T18:30:04.801Z,20.00
2023-01-19T18:32:38.344Z,20.50
2023-01-19T18:35:10.395Z,25.45
2023-01-19T18:37:40.406Z,28.13
2023-01-19T18:40:13.217Z,29.98
2023-01-19T18:42:43.396Z,26.02
2023-01-19T18:45:14.322Z,22.77
2023-01-19T18:47:47.086Z,25.58
2023-01-19T18:50:17.169Z,26.42
2023-01-19T18:52:51.375Z,25.85
2023-01-19T18:55:21.263Z,34.28
2023-01-19T18:57:51.304Z,30.88
2023-01-19T19:00:22.784Z,33.15
2023-01-19T19:02:55.757Z,36.22
2023-01-19T19:05:25.792Z,29.80
2023-01-19T19:07:55.685Z,22.85
2023-01-19T19:10:25.730Z,22.63
2023-01-19T19:12:55.770Z,21.58
2023-01-19T19:15:27.365Z,23.92
2023-01-19T19:17:59.816Z,25.02
2023-01-19T19:20:29.753Z,25.83
2023-01-19T19:22:59.686Z,27.35
2023-01-19T19:25:29.745Z,25.80
2023-01-19T19:27:59.720Z,21.73
2023-01-19T19:30:29.918Z,25.63
2023-01-19T19:33:02.400Z,26.48
2023-01-19T19:35:32.435Z,29.17
2023-01-19T19:38:02.773Z,30.45
2023-01-19T19:40:32.894Z,27.30
2023-01-19T19:43:03.087Z,20.95
2023-01-19T19:45:33.022Z,23.40
2023-01-19T19:48:05.561Z,26.95
2023-01-19T19:50:37.263Z,33.83
2023-01-19T19:53:07.268Z,46.90
2023-01-19T19:55:37.158Z,42.78
2023-01-19T19:58:07.008Z,36.70
2023-01-19T20:00:36.878Z,34.92
2023-01-19T20:03:13.522Z,45.58
2023-01-19T20:05:43.430Z,28.50
2023-01-19T20:08:13.427Z,24.58
2023-01-19T20:10:43.451Z,22.13
2023-01-19T20:13:14.989Z,21.10
2023-01-19T20:15:45.439Z,22.35
2023-01-19T20:18:18.133Z,22.70
2023-01-19T20:20:48.011Z,26.77
2023-01-19T20:23:18.038Z,24.65
2023-01-19T20:25:47.971Z,24.30
2023-01-19T20:28:18.226Z,22.38
2023-01-19T20:30:48.188Z,21.80
2023-01-19T20:33:20.764Z,20.98
2023-01-19T20:35:52.043Z,23.23
2023-01-19T20:38:21.945Z,22.00
2023-01-19T20:40:51.790Z,22.08
2023-01-19T20:43:21.888Z,22.38
2023-01-19T20:45:52.827Z,22.75
2023-01-19T20:48:25.753Z,22.77
2023-01-19T20:51:01.640Z,23.08
2023-01-19T20:53:35.420Z,24.80
2023-01-19T20:56:07.341Z,23.40
2023-01-19T20:58:37.342Z,24.13
2023-01-19T21:01:14.507Z,23.20
2023-01-19T21:03:47.621Z,24.33
2023-01-19T21:06:18.653Z,27.48
2023-01-19T21:08:49.998Z,27.25
2023-01-19T21:11:21.431Z,25.67
2023-01-19T21:13:56.146Z,25.00
2023-01-19T21:16:27.378Z,23.42
2023-01-19T21:19:00.725Z,22.08
2023-01-19T21:21:31.989Z,20.80
2023-01-19T21:24:03.741Z,21.67
2023-01-19T21:26:35.882Z,21.42
2023-01-19T21:29:07.076Z,20.92
2023-01-19T21:31:37.222Z,22.95
2023-01-19T21:34:09.801Z,21.67
2023-01-19T21:36:39.688Z,22.55
2023-01-19T21:39:10.075Z,23.38
2023-01-19T21:41:43.291Z,22.08
2023-01-19T21:44:14.538Z,22.17
2023-01-19T21:46:44.670Z,21.75
2023-01-19T21:49:21.837Z,21.30
2023-01-19T21:51:52.898Z,21.10
2023-01-19T21:54:22.737Z,20.27
2023-01-19T21:56:52.593Z,19.30
2023-01-19T21:59:22.476Z,19.25
2023-01-19T22:01:52.439Z,19.58
2023-01-19T22:04:24.944Z,19.85
2023-01-19T22:06:54.834Z,19.02
2023-01-19T22:09:24.698Z,18.83
2023-01-19T22:11:54.591Z,18.35
2023-01-19T22:14:24.518Z,18.52
2023-01-19T22:16:54.408Z,18.90
2023-01-19T22:19:27.106Z,18.90
2023-01-19T22:21:56.979Z,18.70
2023-01-19T22:24:26.822Z,19.65
2023-01-19T22:26:56.657Z,19.83
2023-01-19T22:29:26.511Z,20.13
2023-01-19T22:31:56.885Z,19.83
2023-01-19T22:34:29.618Z,19.85
2023-01-19T22:36:59.458Z,19.08
2023-01-19T22:39:29.722Z,18.52
2023-01-19T22:41:59.599Z,18.88
2023-01-19T22:44:29.473Z,19.70
2023-01-19T22:46:59.572Z,18.15
2023-01-19T22:49:32.343Z,19.02
2023-01-19T22:52:02.250Z,17.80
2023-01-19T22:54:32.569Z,18.52
2023-01-19T22:57:02.531Z,19.45
2023-01-19T22:59:32.592Z,19.15
2023-01-19T23:02:02.539Z,18.10
2023-01-19T23:04:35.026Z,18.85
2023-01-19T23:07:04.906Z,18.45
2023-01-19T23:09:35.051Z,18.77
2023-01-19T23:12:04.911Z,20.77
2023-01-19T23:14:36.255Z,18.15
2023-01-19T23:17:06.211Z,19.13
2023-01-19T23:19:38.830Z,18.27
2023-01-19T23:22:08.781Z,18.25
2023-01-19T23:24:38.641Z,18.17
2023-01-19T23:27:08.510Z,18.90
2023-01-19T23:29:38.717Z,18.20
2023-01-19T23:32:08.668Z,18.75
2023-01-19T23:34:41.395Z,19.95
2023-01-19T23:37:11.259Z,19.20
2023-01-19T23:39:41.115Z,20.00
2023-01-19T23:42:11.016Z,19.60
2023-01-19T23:44:42.046Z,19.95
2023-01-19T23:47:11.910Z,19.00
2023-01-19T23:49:44.477Z,19.83
2023-01-19T23:52:14.321Z,19.38
2023-01-19T23:54:44.820Z,19.27
2023-01-19T23:57:14.669Z,20.45
2023-01-19T23:59:44.738Z,19.38
